Time;durP1;ratioP1;P1;durP2;ratioP2;P2;SDS_P1;SDS_P2;PMS_P1;PMS_P2;Temp;Humidity;BMP_temperature;BMP_pressure;BME280_temperature;BME280_humidity;BME280_pressure;Samples;Min_cycle;Max_cycle;Signal;HPM_P1;HPM_P2
2022/03/16 00:01:07;;;;;;;9.87;8.87;;;5.80;99.90;;;;;;5023514;28;20218;-40
2022/03/16 00:03:33;;;;;;;11.80;10.30;;;5.90;99.90;;;;;;5029827;28;20228;-40
2022/03/16 00:05:59;;;;;;;12.60;10.40;;;6.00;99.90;;;;;;5016362;28;20286;-39
2022/03/16 00:08:28;;;;;;;11.20;9.10;;;6.30;99.90;;;;;;5029489;28;20222;-40
2022/03/16 00:10:55;;;;;;;9.83;8.63;;;5.90;99.90;;;;;;5028890;28;20198;-40
2022/03/16 00:13:20;;;;;;;14.30;10.27;;;6.10;99.90;;;;;;5029460;28;20866;-40
2022/03/16 00:15:46;;;;;;;10.27;8.97;;;5.80;99.90;;;;;;5029466;28;20417;-39
2022/03/16 00:18:13;;;;;;;11.80;10.03;;;5.70;99.90;;;;;;5029742;28;20205;-42
2022/03/16 00:20:39;;;;;;;17.10;11.37;;;5.70;99.90;;;;;;5020693;28;20273;-40
2022/03/16 00:23:05;;;;;;;11.30;10.20;;;5.90;99.90;;;;;;5028764;28;20428;-39
2022/03/16 00:25:30;;;;;;;14.17;10.97;;;5.70;99.90;;;;;;5027912;28;20436;-42
2022/03/16 00:27:56;;;;;;;15.27;12.00;;;5.70;99.90;;;;;;5028232;28;20935;-41
2022/03/16 00:30:22;;;;;;;13.17;11.23;;;5.90;99.90;;;;;;5027505;28;20194;-41
2022/03/16 00:32:47;;;;;;;15.57;11.97;;;6.10;99.90;;;;;;5028312;28;20198;-40
2022/03/16 00:35:13;;;;;;;13.63;12.03;;;6.00;99.90;;;;;;5022798;28;20194;-41
2022/03/16 00:37:39;;;;;;;13.33;10.73;;;6.10;99.90;;;;;;5023719;28;20190;-39
2022/03/16 00:40:05;;;;;;;15.07;11.50;;;6.10;99.90;;;;;;5027001;28;20185;-40
2022/03/16 00:42:31;;;;;;;14.13;11.37;;;6.00;99.90;;;;;;5028990;28;21096;-41
2022/03/16 00:44:57;;;;;;;16.57;12.07;;;5.90;99.90;;;;;;5029233;28;20436;-40
2022/03/16 00:47:22;;;;;;;15.47;12.10;;;6.00;99.90;;;;;;5028309;28;20202;-40
2022/03/16 00:49:48;;;;;;;13.93;12.07;;;5.80;99.90;;;;;;5026071;28;20266;-40
2022/03/16 00:52:14;;;;;;;18.03;11.90;;;6.20;99.90;;;;;;5016833;28;20187;-39
2022/03/16 00:54:39;;;;;;;17.27;12.20;;;6.00;99.90;;;;;;5027857;28;20198;-39
2022/03/16 00:57:05;;;;;;;15.00;11.90;;;6.10;99.90;;;;;;5028486;28;20218;-39
2022/03/16 00:59:31;;;;;;;16.03;11.20;;;5.90;99.90;;;;;;5027629;28;20277;-40
2022/03/16 01:01:57;;;;;;;13.23;10.70;;;5.60;99.90;;;;;;5027980;28;20583;-41
2022/03/16 01:04:23;;;;;;;14.27;11.20;;;5.60;99.90;;;;;;5028935;28;20182;-39
2022/03/16 01:06:49;;;;;;;16.70;11.77;;;5.50;99.90;;;;;;5012851;28;20526;-41
2022/03/16 01:09:15;;;;;;;13.90;11.70;;;5.40;99.90;;;;;;5027998;28;20564;-40
2022/03/16 01:11:40;;;;;;;11.03;9.87;;;5.40;99.90;;;;;;5028240;28;20681;-40
2022/03/16 01:14:06;;;;;;;11.57;8.97;;;5.50;99.90;;;;;;5028381;28;20194;-39
2022/03/16 01:16:38;;;;;;;11.00;9.20;;;5.60;99.90;;;;;;5028943;28;20256;-39
2022/03/16 01:19:04;;;;;;;12.47;9.67;;;5.60;99.90;;;;;;5027359;28;20272;-39
2022/03/16 01:21:30;;;;;;;14.30;9.70;;;5.60;99.90;;;;;;5022451;28;20469;-40
2022/03/16 01:23:55;;;;;;;11.60;9.67;;;5.60;99.90;;;;;;5027689;28;20562;-40
2022/03/16 01:26:21;;;;;;;10.27;8.97;;;6.00;99.90;;;;;;5028554;28;20429;-39
2022/03/16 01:28:47;;;;;;;13.33;10.50;;;6.00;99.90;;;;;;5026689;28;20194;-40
2022/03/16 01:31:12;;;;;;;11.53;9.73;;;6.20;99.90;;;;;;5027710;28;20202;-40
2022/03/16 01:33:38;;;;;;;10.90;9.43;;;6.20;99.90;;;;;;5027923;28;20462;-39
2022/03/16 01:36:04;;;;;;;11.73;9.87;;;6.30;99.90;;;;;;5020778;28;20201;-41
2022/03/16 01:38:30;;;;;;;12.27;9.73;;;6.30;99.90;;;;;;5023292;28;20193;-40
2022/03/16 01:40:56;;;;;;;11.20;9.33;;;6.20;99.90;;;;;;5025914;28;20472;-39
2022/03/16 01:43:23;;;;;;;12.10;10.80;;;6.00;99.90;;;;;;5028207;28;20342;-40
2022/03/16 01:45:51;;;;;;;15.20;12.00;;;6.00;99.90;;;;;;5027776;28;20421;-40
2022/03/16 01:48:17;;;;;;;13.30;11.90;;;5.80;99.90;;;;;;5027837;28;20425;-40
2022/03/16 01:50:43;;;;;;;13.50;12.13;;;5.90;99.90;;;;;;5021512;28;20434;-39
2022/03/16 01:53:11;;;;;;;15.03;10.87;;;5.60;99.90;;;;;;5026347;28;20951;-41
2022/03/16 01:55:38;;;;;;;14.30;11.37;;;5.70;99.90;;;;;;5026737;28;20301;-39
2022/03/16 01:58:04;;;;;;;12.50;10.67;;;6.00;99.90;;;;;;5027846;28;20453;-42
2022/03/16 02:00:30;;;;;;;14.87;12.27;;;6.00;99.90;;;;;;5026939;28;20970;-39
2022/03/16 02:02:55;;;;;;;13.60;11.40;;;5.90;99.90;;;;;;5026716;28;20202;-39
2022/03/16 02:05:21;;;;;;;12.10;9.70;;;5.80;99.90;;;;;;5025592;28;20218;-39
2022/03/16 02:07:47;;;;;;;12.80;10.70;;;5.90;99.90;;;;;;5020491;28;20191;-39
2022/03/16 02:10:14;;;;;;;12.90;11.10;;;5.90;99.90;;;;;;5026922;28;20582;-39
2022/03/16 02:12:49;;;;;;;16.00;12.50;;;5.90;99.90;;;;;;5027281;28;20979;-40
2022/03/16 02:15:16;;;;;;;15.70;12.37;;;5.80;99.90;;;;;;5027891;28;20447;-41
2022/03/16 02:17:42;;;;;;;15.07;12.47;;;6.00;99.90;;;;;;5026361;28;20433;-42
2022/03/16 02:20:08;;;;;;;13.73;12.13;;;5.60;99.90;;;;;;5005765;28;20948;-39
2022/03/16 02:22:41;;;;;;;13.50;12.10;;;5.70;99.90;;;;;;5017761;28;20630;-40
2022/03/16 02:25:09;;;;;;;13.40;11.60;;;5.60;99.90;;;;;;5026418;28;20513;-39
2022/03/16 02:27:39;;;;;;;15.50;11.17;;;5.90;99.90;;;;;;5026089;28;20432;-39
2022/03/16 02:30:05;;;;;;;12.33;11.03;;;5.70;99.90;;;;;;5026818;28;20432;-41
2022/03/16 02:32:31;;;;;;;13.10;11.20;;;5.70;99.90;;;;;;5025731;28;20425;-40
2022/03/16 02:34:56;;;;;;;14.87;10.97;;;5.80;99.90;;;;;;5027642;28;20417;-39
2022/03/16 02:37:22;;;;;;;12.93;10.43;;;5.60;99.90;;;;;;5017741;28;20645;-41
2022/03/16 02:39:48;;;;;;;13.43;10.30;;;5.40;99.90;;;;;;5026561;28;20221;-41
2022/03/16 02:42:14;;;;;;;12.77;10.47;;;5.50;99.90;;;;;;5027084;28;20210;-39
2022/03/16 02:44:40;;;;;;;10.83;9.67;;;5.50;99.90;;;;;;5027169;28;20417;-39
2022/03/16 02:47:06;;;;;;;11.33;9.27;;;5.30;99.90;;;;;;5026952;28;20651;-40
2022/03/16 02:49:31;;;;;;;10.47;9.33;;;5.40;99.90;;;;;;5027013;28;20186;-39
2022/03/16 02:51:57;;;;;;;10.40;9.30;;;5.40;99.90;;;;;;5020000;28;20538;-40
2022/03/16 02:54:23;;;;;;;11.07;8.30;;;5.30;99.90;;;;;;5027010;28;20193;-40
2022/03/16 02:56:49;;;;;;;11.47;9.37;;;5.40;99.90;;;;;;5025799;28;20229;-42
2022/03/16 02:59:15;;;;;;;12.30;9.10;;;5.40;99.90;;;;;;5027123;28;20230;-41
2022/03/16 03:01:41;;;;;;;11.27;9.57;;;5.50;99.90;;;;;;5026713;28;20214;-39
2022/03/16 03:04:06;;;;;;;11.27;9.03;;;5.30;99.90;;;;;;5026766;28;20425;-39
2022/03/16 03:06:32;;;;;;;11.40;9.50;;;5.20;99.90;;;;;;5020309;28;20203;-39
2022/03/16 03:08:58;;;;;;;11.30;9.80;;;5.40;99.90;;;;;;5024020;28;20218;-40
2022/03/16 03:11:23;;;;;;;11.37;9.33;;;5.30;99.90;;;;;;5030429;28;20192;-40
2022/03/16 03:13:49;;;;;;;10.60;9.20;;;5.20;99.90;;;;;;5030768;28;20248;-39
2022/03/16 03:16:15;;;;;;;11.13;9.60;;;5.10;99.90;;;;;;5030879;28;20429;-39
2022/03/16 03:18:40;;;;;;;10.77;9.70;;;5.00;99.90;;;;;;5030472;28;20197;-39
2022/03/16 03:21:06;;;;;;;12.90;10.03;;;5.20;99.90;;;;;;5028759;28;20575;-40
2022/03/16 03:23:31;;;;;;;13.27;10.37;;;5.20;99.90;;;;;;5030163;28;20413;-39
2022/03/16 03:25:57;;;;;;;9.67;8.63;;;5.10;99.90;;;;;;5030512;28;20182;-39
2022/03/16 03:28:23;;;;;;;10.47;9.37;;;5.10;99.90;;;;;;5030531;28;20237;-40
2022/03/16 03:30:48;;;;;;;11.60;9.87;;;4.80;99.90;;;;;;5029971;28;20814;-41
2022/03/16 03:33:14;;;;;;;13.50;10.23;;;4.70;99.90;;;;;;5030008;28;20204;-39
2022/03/16 03:35:39;;;;;;;12.53;10.73;;;4.60;99.90;;;;;;5030296;28;20281;-39
2022/03/16 03:38:05;;;;;;;11.67;10.17;;;4.60;99.90;;;;;;5013944;28;20282;-40
2022/03/16 03:40:31;;;;;;;12.20;10.00;;;4.80;99.90;;;;;;5029170;28;20293;-39
2022/03/16 03:42:56;;;;;;;12.37;9.97;;;4.80;99.90;;;;;;5029140;28;20734;-39
2022/03/16 03:45:22;;;;;;;12.87;11.40;;;5.00;99.90;;;;;;5029975;28;20186;-42
2022/03/16 03:47:48;;;;;;;12.00;10.70;;;4.90;99.90;;;;;;5030093;28;20239;-43
2022/03/16 03:50:13;;;;;;;14.17;10.67;;;5.00;99.90;;;;;;5028205;28;20802;-39
2022/03/16 03:52:39;;;;;;;13.60;11.43;;;5.10;99.90;;;;;;5015887;28;20713;-39
2022/03/16 03:55:05;;;;;;;14.67;10.87;;;5.10;99.90;;;;;;5028260;28;20187;-39
2022/03/16 03:57:31;;;;;;;14.07;11.10;;;5.20;99.90;;;;;;5030069;28;20279;-39
2022/03/16 03:59:57;;;;;;;12.50;11.03;;;5.10;99.90;;;;;;5028938;28;20417;-39
2022/03/16 04:02:22;;;;;;;12.10;10.30;;;5.10;99.90;;;;;;5029735;28;20256;-39
2022/03/16 04:04:48;;;;;;;13.40;10.87;;;4.80;99.90;;;;;;5029679;28;20185;-39
2022/03/16 04:07:13;;;;;;;14.90;10.53;;;4.90;99.90;;;;;;5019764;28;20178;-40
2022/03/16 04:09:39;;;;;;;12.37;10.30;;;5.00;99.90;;;;;;5026105;28;20194;-39
2022/03/16 04:12:05;;;;;;;14.30;9.90;;;5.00;99.90;;;;;;5029632;28;20186;-39
2022/03/16 04:14:31;;;;;;;12.33;9.80;;;5.30;99.90;;;;;;5029646;28;20194;-39
2022/03/16 04:16:57;;;;;;;13.60;10.77;;;5.20;99.90;;;;;;5040111;28;20432;-39
2022/03/16 04:19:22;;;;;;;10.90;9.80;;;5.30;99.90;;;;;;5049849;28;20228;-41
2022/03/16 04:21:48;;;;;;;12.10;9.17;;;5.30;99.90;;;;;;5034686;28;20211;-39
2022/03/16 04:24:14;;;;;;;13.50;9.90;;;5.30;99.90;;;;;;5029391;28;20645;-40
2022/03/16 04:26:39;;;;;;;10.63;9.50;;;5.20;99.90;;;;;;5029312;28;20264;-39
2022/03/16 04:29:05;;;;;;;13.23;10.30;;;5.50;99.90;;;;;;5029306;28;20194;-40
2022/03/16 04:31:30;;;;;;;11.30;9.87;;;5.40;99.90;;;;;;5028367;28;20191;-39
2022/03/16 04:33:57;;;;;;;13.20;8.83;;;5.50;99.90;;;;;;5029285;28;20222;-39
2022/03/16 04:36:23;;;;;;;11.23;9.53;;;5.30;99.90;;;;;;5027119;28;20197;-43
2022/03/16 04:38:50;;;;;;;12.57;9.00;;;5.50;99.90;;;;;;5022254;28;20421;-40
2022/03/16 04:41:16;;;;;;;11.20;9.23;;;5.30;99.90;;;;;;5028436;28;20452;-41
2022/03/16 04:43:41;;;;;;;12.60;9.70;;;5.20;99.90;;;;;;5029095;28;20429;-40
2022/03/16 04:46:07;;;;;;;10.80;8.70;;;5.50;99.90;;;;;;5028951;28;20640;-40
2022/03/16 04:48:33;;;;;;;12.37;9.90;;;5.30;99.90;;;;;;5029659;28;20192;-40
2022/03/16 04:50:58;;;;;;;12.27;8.80;;;5.40;99.90;;;;;;5028576;28;20194;-40
2022/03/16 04:53:24;;;;;;;12.07;9.70;;;5.30;99.90;;;;;;5016371;28;20220;-44
2022/03/16 04:55:49;;;;;;;13.07;9.27;;;5.50;99.90;;;;;;5027293;28;20213;-43
2022/03/16 04:58:15;;;;;;;11.73;9.90;;;5.50;99.90;;;;;;5028542;28;20672;-40
2022/03/16 05:00:41;;;;;;;11.17;9.60;;;5.30;99.90;;;;;;5026575;28;20244;-39
2022/03/16 05:03:06;;;;;;;11.23;10.10;;;5.40;99.90;;;;;;5028840;28;20197;-40
2022/03/16 05:05:32;;;;;;;11.63;9.80;;;5.10;99.90;;;;;;5028828;28;20190;-40
2022/03/16 05:07:58;;;;;;;11.30;9.03;;;5.30;99.90;;;;;;5017311;28;20182;-39
2022/03/16 05:10:24;;;;;;;12.83;10.37;;;5.40;99.90;;;;;;5027964;28;20182;-39
2022/03/16 05:12:49;;;;;;;13.13;9.90;;;5.20;99.90;;;;;;5027129;28;20360;-39
2022/03/16 05:15:20;;;;;;;13.00;9.93;;;4.90;99.90;;;;;;5028322;28;20197;-39
2022/03/16 05:17:46;;;;;;;11.90;9.67;;;4.90;99.90;;;;;;5028432;28;20206;-40
2022/03/16 05:20:13;;;;;;;12.33;9.00;;;5.10;99.90;;;;;;5028172;28;20429;-39
2022/03/16 05:22:48;;;;;;;14.43;10.47;;;4.90;99.90;;;;;;5022436;28;20441;-39
2022/03/16 05:25:20;;;;;;;11.73;9.50;;;4.70;99.90;;;;;;5022463;28;20417;-39
2022/03/16 05:27:46;;;;;;;12.83;10.43;;;4.80;99.90;;;;;;5025874;28;20479;-39
2022/03/16 05:30:13;;;;;;;14.10;10.70;;;4.80;99.90;;;;;;5027407;28;20429;-40
2022/03/16 05:32:42;;;;;;;10.97;9.20;;;4.70;99.90;;;;;;5028046;28;20186;-39
2022/03/16 05:35:10;;;;;;;14.10;10.10;;;4.80;99.90;;;;;;5028094;28;20417;-40
2022/03/16 05:37:36;;;;;;;14.90;10.50;;;4.70;99.90;;;;;;5017619;28;20433;-39
2022/03/16 05:40:02;;;;;;;13.63;9.67;;;4.90;99.90;;;;;;5026058;28;20417;-39
2022/03/16 05:42:28;;;;;;;11.83;9.20;;;4.70;99.90;;;;;;5028010;28;20426;-39
2022/03/16 05:44:54;;;;;;;15.20;10.13;;;4.80;99.90;;;;;;5026603;28;21076;-39
2022/03/16 05:47:21;;;;;;;11.37;9.23;;;5.00;99.90;;;;;;5028100;28;20186;-42
2022/03/16 05:49:51;;;;;;;13.60;10.20;;;5.10;99.90;;;;;;5027048;28;20517;-40
2022/03/16 05:52:21;;;;;;;12.37;10.10;;;5.10;99.90;;;;;;5021977;28;20437;-40
2022/03/16 05:54:48;;;;;;;14.10;9.93;;;4.90;99.90;;;;;;5022971;28;20421;-39
2022/03/16 05:57:15;;;;;;;11.60;9.40;;;5.10;99.90;;;;;;5027635;28;20813;-39
2022/03/16 05:59:44;;;;;;;13.60;10.60;;;4.80;99.90;;;;;;5027091;28;20856;-40
2022/03/16 06:02:12;;;;;;;13.50;10.17;;;4.90;99.90;;;;;;5027708;28;20471;-44
2022/03/16 06:04:38;;;;;;;11.63;8.90;;;5.10;99.90;;;;;;5026449;28;20515;-40
2022/03/16 06:07:05;;;;;;;12.80;10.20;;;5.10;99.90;;;;;;5023399;28;20437;-40
2022/03/16 06:09:31;;;;;;;13.10;9.90;;;4.90;99.90;;;;;;5015072;28;20800;-40
2022/03/16 06:11:57;;;;;;;13.37;9.93;;;5.10;99.90;;;;;;5025532;28;20428;-39
2022/03/16 06:14:23;;;;;;;17.33;9.60;;;4.90;99.90;;;;;;5026361;28;20429;-39
2022/03/16 06:16:49;;;;;;;12.33;9.93;;;5.10;99.90;;;;;;5027593;28;20511;-39
2022/03/16 06:19:14;;;;;;;13.30;9.87;;;5.10;99.90;;;;;;5027874;28;20904;-39
2022/03/16 06:21:40;;;;;;;15.97;10.40;;;5.00;99.90;;;;;;5026667;28;20221;-39
2022/03/16 06:24:06;;;;;;;11.70;9.60;;;4.90;99.90;;;;;;5012910;28;20186;-39
2022/03/16 06:26:32;;;;;;;13.60;9.87;;;5.00;99.90;;;;;;5026034;28;20186;-39
2022/03/16 06:28:58;;;;;;;12.90;10.00;;;5.00;99.90;;;;;;5027503;28;20421;-40
2022/03/16 06:31:24;;;;;;;14.07;10.27;;;5.10;99.90;;;;;;5026741;28;20421;-41
2022/03/16 06:33:49;;;;;;;12.20;9.60;;;5.10;99.90;;;;;;5027397;28;20182;-39
2022/03/16 06:36:15;;;;;;;16.40;9.90;;;5.20;99.90;;;;;;5026048;28;20194;-39
2022/03/16 06:38:41;;;;;;;13.50;10.50;;;5.30;99.90;;;;;;5015563;28;20706;-42
2022/03/16 06:41:06;;;;;;;14.70;10.73;;;5.10;99.90;;;;;;5026185;28;20206;-39
2022/03/16 06:43:32;;;;;;;14.30;10.47;;;5.20;99.90;;;;;;5027215;28;20186;-39
2022/03/16 06:45:58;;;;;;;16.53;11.07;;;5.30;99.90;;;;;;5030529;28;20256;-39
2022/03/16 06:48:24;;;;;;;13.40;9.60;;;5.40;99.90;;;;;;5031385;28;20193;-39
2022/03/16 06:50:50;;;;;;;13.37;9.80;;;5.60;99.90;;;;;;5029314;28;20217;-43
2022/03/16 06:53:16;;;;;;;12.60;8.90;;;6.00;99.90;;;;;;5021584;28;20468;-40
2022/03/16 06:55:42;;;;;;;11.73;8.37;;;5.90;99.90;;;;;;5026008;28;20460;-41
2022/03/16 06:58:08;;;;;;;12.80;9.30;;;6.00;99.90;;;;;;5030961;28;20437;-40
2022/03/16 07:00:33;;;;;;;12.43;9.73;;;6.00;99.90;;;;;;5029099;28;20202;-40
2022/03/16 07:03:01;;;;;;;14.10;10.17;;;6.20;99.90;;;;;;5029663;28;20196;-40
2022/03/16 07:05:36;;;;;;;12.37;9.77;;;6.40;99.90;;;;;;5031110;28;20178;-39
2022/03/16 07:08:07;;;;;;;14.70;9.20;;;6.20;99.90;;;;;;5023851;28;20468;-41
2022/03/16 07:10:34;;;;;;;13.17;9.60;;;6.50;99.90;;;;;;5026050;28;20428;-43
2022/03/16 07:13:00;;;;;;;13.07;9.47;;;6.40;99.90;;;;;;5029225;28;20572;-39
2022/03/16 07:15:27;;;;;;;12.80;10.40;;;6.80;99.90;;;;;;5030931;28;20452;-39
2022/03/16 07:17:53;;;;;;;12.50;9.63;;;6.70;99.90;;;;;;5030660;28;20447;-41
2022/03/16 07:20:19;;;;;;;13.50;10.33;;;6.70;99.90;;;;;;5030169;28;21162;-40
2022/03/16 07:22:45;;;;;;;15.17;11.20;;;6.80;99.90;;;;;;5026887;28;20432;-39
2022/03/16 07:25:11;;;;;;;14.17;10.90;;;6.80;99.90;;;;;;5022620;28;20413;-39
2022/03/16 07:27:40;;;;;;;14.80;10.90;;;6.90;99.90;;;;;;5030590;28;20478;-40
2022/03/16 07:30:08;;;;;;;17.00;10.50;;;6.90;99.90;;;;;;5029857;28;20513;-39
2022/03/16 07:32:41;;;;;;;17.50;11.50;;;7.40;99.90;;;;;;5030164;28;20460;-40
2022/03/16 07:35:09;;;;;;;13.00;10.80;;;7.40;99.90;;;;;;5030535;28;20507;-40
2022/03/16 07:37:35;;;;;;;14.77;11.83;;;7.80;99.90;;;;;;5027885;28;20409;-39
2022/03/16 07:40:02;;;;;;;12.50;10.43;;;7.70;99.90;;;;;;5021539;28;20883;-39
2022/03/16 07:42:29;;;;;;;14.50;10.80;;;8.20;99.90;;;;;;5030287;28;20464;-41
2022/03/16 07:44:54;;;;;;;13.83;10.20;;;8.10;99.90;;;;;;5028963;28;20463;-39
2022/03/16 07:47:20;;;;;;;13.63;10.93;;;8.20;99.90;;;;;;5030558;28;20674;-39
2022/03/16 07:49:46;;;;;;;13.50;10.53;;;8.50;99.90;;;;;;5029534;28;20577;-40
2022/03/16 07:52:11;;;;;;;15.67;10.87;;;8.70;99.90;;;;;;5030201;28;20194;-39
2022/03/16 07:54:37;;;;;;;13.67;10.97;;;8.70;99.90;;;;;;5022513;28;20221;-40
2022/03/16 07:57:03;;;;;;;12.17;9.53;;;8.90;99.90;;;;;;5028414;28;20302;-39
2022/03/16 07:59:28;;;;;;;13.87;9.47;;;9.10;99.90;;;;;;5029761;28;20281;-40
2022/03/16 08:01:54;;;;;;;10.97;9.17;;;9.40;99.90;;;;;;5028973;28;20488;-40
2022/03/16 08:04:20;;;;;;;13.87;9.80;;;9.40;99.90;;;;;;5029840;28;20183;-39
2022/03/16 08:06:45;;;;;;;13.93;10.40;;;9.60;99.90;;;;;;5030270;28;20205;-40
2022/03/16 08:09:11;;;;;;;11.57;9.57;;;9.30;99.90;;;;;;5017438;28;20194;-40
2022/03/16 08:11:37;;;;;;;14.83;10.40;;;9.60;99.90;;;;;;5028038;28;20252;-39
2022/03/16 08:14:02;;;;;;;13.23;9.80;;;10.00;99.90;;;;;;5029661;28;20248;-39
2022/03/16 08:16:28;;;;;;;14.13;10.10;;;9.90;99.90;;;;;;5029545;28;20235;-39
2022/03/16 08:18:54;;;;;;;13.20;9.63;;;10.00;99.90;;;;;;5029775;28;20248;-40
2022/03/16 08:21:19;;;;;;;14.07;10.07;;;9.90;99.90;;;;;;5028964;28;20270;-40
2022/03/16 08:23:45;;;;;;;12.63;10.67;;;10.10;99.90;;;;;;5023190;28;20277;-41
2022/03/16 08:26:11;;;;;;;12.50;10.00;;;10.10;99.90;;;;;;5027966;28;20183;-40
2022/03/16 08:28:36;;;;;;;13.50;9.53;;;10.20;99.90;;;;;;5029967;28;20174;-42
2022/03/16 08:31:02;;;;;;;13.50;10.77;;;10.50;99.90;;;;;;5028304;28;20190;-39
2022/03/16 08:33:27;;;;;;;12.03;9.83;;;10.40;99.90;;;;;;5029310;28;20557;-39
2022/03/16 08:35:53;;;;;;;13.23;10.27;;;10.50;99.90;;;;;;5029379;28;20182;-39
2022/03/16 08:38:19;;;;;;;13.57;10.30;;;10.60;99.90;;;;;;5023924;28;20195;-40
2022/03/16 08:40:46;;;;;;;12.67;10.20;;;10.80;99.90;;;;;;5019816;28;20206;-40
2022/03/16 08:43:11;;;;;;;13.30;10.20;;;10.60;99.90;;;;;;5028054;28;20198;-39
2022/03/16 08:45:39;;;;;;;12.40;9.90;;;10.50;99.90;;;;;;5029198;28;20417;-39
2022/03/16 08:48:05;;;;;;;13.20;9.77;;;10.70;99.90;;;;;;5029254;28;20193;-39
2022/03/16 08:50:30;;;;;;;14.27;10.50;;;10.80;99.90;;;;;;5028478;28;20421;-40
2022/03/16 08:52:57;;;;;;;13.43;9.60;;;10.80;99.90;;;;;;5026247;28;20203;-40
2022/03/16 08:55:23;;;;;;;15.87;9.80;;;11.00;99.90;;;;;;5016249;28;20186;-39
2022/03/16 08:57:48;;;;;;;12.30;9.60;;;11.10;99.90;;;;;;5028986;28;20424;-40
2022/03/16 09:00:15;;;;;;;10.90;9.17;;;11.30;99.90;;;;;;5026561;28;20533;-39
2022/03/16 09:02:43;;;;;;;13.33;8.53;;;11.10;99.90;;;;;;5027487;28;20198;-40
2022/03/16 09:05:10;;;;;;;11.70;9.40;;;11.30;99.90;;;;;;5028967;28;20808;-42
2022/03/16 09:07:38;;;;;;;12.63;10.10;;;11.30;99.90;;;;;;5028143;28;20537;-39
2022/03/16 09:10:05;;;;;;;11.10;8.90;;;11.40;99.90;;;;;;5015944;28;20429;-39
2022/03/16 09:12:31;;;;;;;12.40;8.70;;;11.60;99.90;;;;;;5023046;28;20425;-39
2022/03/16 09:14:57;;;;;;;14.97;9.77;;;11.70;99.90;;;;;;5027499;28;20474;-40
2022/03/16 09:17:22;;;;;;;13.07;9.70;;;11.80;99.90;;;;;;5028580;28;20453;-39
2022/03/16 09:19:48;;;;;;;13.70;9.30;;;11.90;99.90;;;;;;5028236;28;20661;-39
2022/03/16 09:22:14;;;;;;;13.13;9.67;;;12.00;99.90;;;;;;5029953;28;20329;-40
2022/03/16 09:24:40;;;;;;;12.53;9.73;;;11.90;99.90;;;;;;5023831;28;20521;-41
2022/03/16 09:27:07;;;;;;;12.50;10.23;;;12.10;99.90;;;;;;5027756;28;20290;-39
2022/03/16 09:29:33;;;;;;;11.50;9.30;;;12.00;99.90;;;;;;5027679;28;20598;-39
2022/03/16 09:31:58;;;;;;;11.10;8.73;;;12.10;99.90;;;;;;5028226;28;20499;-42
2022/03/16 09:34:24;;;;;;;10.93;8.77;;;12.20;99.90;;;;;;5028061;28;20475;-39
2022/03/16 09:36:50;;;;;;;10.60;9.17;;;12.30;99.90;;;;;;5028504;28;20193;-39
2022/03/16 09:39:16;;;;;;;10.17;8.00;;;12.40;99.90;;;;;;5022075;28;20204;-40
2022/03/16 09:41:42;;;;;;;11.20;9.33;;;12.30;99.90;;;;;;5023507;28;20525;-40
2022/03/16 09:44:09;;;;;;;10.03;8.17;;;12.20;99.90;;;;;;5027846;28;20421;-40
2022/03/16 09:46:36;;;;;;;8.83;7.90;;;12.20;99.90;;;;;;5028017;28;20429;-41
2022/03/16 09:49:07;;;;;;;9.47;7.80;;;12.30;99.90;;;;;;5027899;28;20421;-42
2022/03/16 09:51:38;;;;;;;12.07;8.50;;;12.40;99.90;;;;;;5026360;28;20456;-39
2022/03/16 09:54:05;;;;;;;10.00;7.90;;;12.40;99.90;;;;;;5024538;28;20433;-40
2022/03/16 09:56:32;;;;;;;8.23;7.43;;;12.30;99.90;;;;;;5021373;28;20936;-40
2022/03/16 09:58:58;;;;;;;11.13;8.23;;;12.30;99.90;;;;;;5027713;28;20470;-39
2022/03/16 10:01:24;;;;;;;9.60;8.27;;;12.30;99.90;;;;;;5026985;28;20963;-42
2022/03/16 10:03:50;;;;;;;10.70;8.50;;;12.20;99.90;;;;;;5027723;28;20179;-40
2022/03/16 10:06:17;;;;;;;9.83;7.60;;;12.30;99.90;;;;;;5027608;28;20424;-40
2022/03/16 10:13:13;;;;;;;9.13;8.20;;;12.20;99.90;;;;;;5023949;28;20477;-39
2022/03/16 10:14:16;;;;;;;10.00;8.57;;;12.30;99.90;;;;;;5024346;28;20445;-39
2022/03/16 10:19:53;;;;;;;12.13;8.63;;;12.70;99.90;;;;;;5026158;28;20425;-40
2022/03/16 10:22:25;;;;;;;11.33;8.97;;;12.80;99.90;;;;;;5029786;28;20567;-39
2022/03/16 10:24:57;;;;;;;12.03;8.53;;;13.00;99.90;;;;;;5025632;28;20846;-41
2022/03/16 10:27:23;;;;;;;10.40;8.87;;;13.10;99.90;;;;;;5027887;28;20432;-42
2022/03/16 10:29:50;;;;;;;10.97;9.20;;;13.20;99.90;;;;;;5037006;28;20786;-39
2022/03/16 10:32:16;;;;;;;11.30;8.30;;;13.20;99.90;;;;;;5043305;28;20198;-40
2022/03/16 10:34:53;;;;;;;9.60;8.60;;;13.30;99.90;;;;;;5037979;28;20425;-40
2022/03/16 10:37:23;;;;;;;9.50;8.50;;;13.50;99.90;;;;;;5047263;28;20224;-41
2022/03/16 10:39:51;;;;;;;10.27;8.20;;;13.60;99.90;;;;;;5024898;28;20434;-40
2022/03/16 10:47:58;;;;;;;11.13;9.63;;;14.00;99.20;;;;;;5027758;28;20433;-40
2022/03/16 10:50:23;;;;;;;10.80;9.17;;;14.20;99.70;;;;;;5026283;28;20483;-40
2022/03/16 10:52:50;;;;;;;11.10;9.53;;;14.20;98.80;;;;;;5027033;28;20435;-40
2022/03/16 10:55:19;;;;;;;10.57;8.93;;;14.10;98.10;;;;;;5016059;28;20193;-39
2022/03/16 10:57:50;;;;;;;10.63;9.10;;;14.00;98.60;;;;;;5027046;28;20429;-40
2022/03/16 11:00:17;;;;;;;12.60;9.43;;;14.10;99.20;;;;;;5014117;28;20413;-40
2022/03/16 11:02:45;;;;;;;11.90;9.83;;;14.20;99.10;;;;;;5027167;28;20483;-40
2022/03/16 11:05:11;;;;;;;13.30;11.17;;;14.30;99.10;;;;;;5027368;28;20461;-39
2022/03/16 11:07:38;;;;;;;14.37;9.73;;;14.40;98.70;;;;;;5026879;28;20455;-40
2022/03/16 11:10:06;;;;;;;10.30;8.97;;;14.50;97.90;;;;;;5017283;28;20449;-39
2022/03/16 11:15:18;;;;;;;9.17;7.63;;;14.20;97.90;;;;;;5026992;28;20435;-40
2022/03/16 11:17:45;;;;;;;9.40;8.40;;;14.10;98.00;;;;;;5025251;28;20433;-39
2022/03/16 11:20:11;;;;;;;9.93;8.63;;;14.20;97.60;;;;;;5026390;28;20916;-41
2022/03/16 11:26:11;;;;;;;9.33;7.83;;;14.30;98.30;;;;;;5016455;28;20776;-40
2022/03/16 11:29:05;;;;;;;9.80;8.23;;;14.60;97.60;;;;;;5022211;28;20455;-39
2022/03/16 11:31:32;;;;;;;10.37;9.27;;;14.50;97.10;;;;;;5019645;28;20451;-40
2022/03/16 11:34:08;;;;;;;11.27;8.73;;;14.50;97.10;;;;;;5030376;28;20425;-40
2022/03/16 11:36:40;;;;;;;9.93;8.60;;;14.70;97.10;;;;;;5029200;28;20470;-40
2022/03/16 11:39:18;;;;;;;9.73;8.70;;;14.70;97.10;;;;;;5027476;28;20441;-39
2022/03/16 11:41:52;;;;;;;9.63;8.30;;;14.90;96.70;;;;;;5024878;28;21032;-41
2022/03/16 11:44:27;;;;;;;11.07;8.27;;;15.00;96.10;;;;;;5023184;28;20508;-40
2022/03/16 11:46:53;;;;;;;9.03;8.10;;;15.00;96.10;;;;;;5030165;28;20443;-40
2022/03/16 11:49:30;;;;;;;12.10;8.57;;;15.00;96.20;;;;;;5030150;28;20429;-39
2022/03/16 11:52:04;;;;;;;9.23;8.17;;;15.00;95.90;;;;;;5029553;28;20432;-40
2022/03/16 11:54:40;;;;;;;10.77;8.90;;;15.10;96.20;;;;;;5023016;28;20445;-41
2022/03/16 11:57:07;;;;;;;9.43;8.10;;;15.20;96.00;;;;;;5022941;28;20440;-40
2022/03/16 11:59:35;;;;;;;8.53;7.63;;;15.30;94.90;;;;;;5029584;28;20486;-40
2022/03/16 12:02:10;;;;;;;7.93;7.13;;;15.30;94.00;;;;;;5028747;28;20477;-41
2022/03/16 12:04:39;;;;;;;8.73;6.73;;;15.30;93.30;;;;;;5029718;28;20431;-39
2022/03/16 12:07:10;;;;;;;9.50;6.97;;;15.20;93.40;;;;;;5029869;28;20457;-41
2022/03/16 12:09:46;;;;;;;7.63;6.87;;;15.20;93.70;;;;;;5023823;28;20434;-41
2022/03/16 12:15:11;;;;;;;9.00;8.10;;;15.20;93.40;;;;;;5028548;28;20924;-39
2022/03/16 12:17:52;;;;;;;8.40;7.40;;;15.30;93.70;;;;;;5029840;28;20514;-41
2022/03/16 12:20:21;;;;;;;8.40;7.50;;;15.30;93.70;;;;;;5028697;28;20421;-41
2022/03/16 12:22:52;;;;;;;9.07;8.07;;;15.40;94.50;;;;;;5035244;28;20432;-40
2022/03/16 12:25:26;;;;;;;8.03;7.00;;;15.40;93.30;;;;;;5031031;28;20452;-41
2022/03/16 12:30:54;;;;;;;7.77;6.97;;;15.20;92.80;;;;;;5025987;28;20468;-43
2022/03/16 12:33:25;;;;;;;7.80;6.90;;;15.10;93.10;;;;;;5029490;28;20471;-42
2022/03/16 12:35:59;;;;;;;7.93;7.13;;;15.20;93.30;;;;;;5029124;28;20483;-40
2022/03/16 12:38:27;;;;;;;8.07;7.00;;;15.20;92.70;;;;;;5028490;28;20614;-40
2022/03/16 12:43:38;;;;;;;9.50;8.03;;;15.20;93.20;;;;;;5028345;28;20532;-40
2022/03/16 12:46:25;;;;;;;9.83;7.70;;;15.20;93.30;;;;;;5029332;28;20504;-40
2022/03/16 12:48:59;;;;;;;8.00;6.90;;;15.20;92.60;;;;;;5029113;28;20413;-39
2022/03/16 12:51:45;;;;;;;8.23;7.40;;;15.30;92.80;;;;;;5027970;28;20436;-43
2022/03/16 12:54:20;;;;;;;7.20;6.50;;;15.20;92.40;;;;;;5029211;28;20472;-41
2022/03/16 12:56:51;;;;;;;9.50;8.50;;;15.30;93.00;;;;;;5017535;28;20449;-40
2022/03/16 12:59:26;;;;;;;7.47;6.73;;;15.30;92.30;;;;;;5027795;28;20436;-40
2022/03/16 13:01:54;;;;;;;8.80;7.00;;;15.40;92.70;;;;;;5006925;28;20469;-41
2022/03/16 13:04:23;;;;;;;8.90;7.53;;;15.40;92.30;;;;;;5021949;28;20429;-40
2022/03/16 13:06:52;;;;;;;9.10;8.20;;;15.30;92.60;;;;;;5015194;28;20456;-40